createdAt,value
2022-12-01T00:02:30.190Z,7.40
2022-12-01T00:07:33.442Z,7.00
2022-12-01T00:12:36.547Z,7.50
2022-12-01T00:17:39.620Z,7.60
2022-12-01T00:22:44.269Z,8.90
2022-12-01T00:27:52.289Z,8.00
2022-12-01T00:32:55.396Z,8.80
2022-12-01T00:37:58.405Z,8.60
2022-12-01T00:43:01.416Z,8.20
2022-12-01T00:48:04.826Z,7.40
2022-12-01T00:53:07.836Z,7.20
2022-12-01T00:58:11.862Z,6.70
2022-12-01T01:03:14.869Z,7.60
2022-12-01T01:08:17.874Z,7.30
2022-12-01T01:13:20.785Z,7.00
2022-12-01T01:18:23.787Z,7.30
2022-12-01T01:23:27.306Z,6.90
2022-12-01T01:28:31.742Z,6.10
2022-12-01T01:33:34.854Z,7.10
2022-12-01T01:38:37.960Z,7.20
2022-12-01T01:43:40.967Z,7.30
2022-12-01T01:48:48.423Z,6.80
2022-12-01T01:53:54.508Z,6.20
2022-12-01T01:58:58.434Z,6.20
2022-12-01T02:04:01.576Z,4.80
2022-12-01T02:09:04.501Z,5.30
2022-12-01T02:14:26.345Z,5.30
2022-12-01T02:19:44.304Z,5.40
2022-12-01T02:25:02.361Z,5.20
2022-12-01T02:30:05.375Z,4.90
2022-12-01T02:35:49.437Z,5.20
2022-12-01T02:41:20.295Z,6.00
2022-12-01T02:46:23.276Z,5.30
2022-12-01T02:51:32.318Z,5.20
2022-12-01T02:56:35.255Z,5.40
2022-12-01T03:01:56.801Z,5.10
2022-12-01T03:07:37.820Z,5.10
2022-12-01T03:12:49.682Z,5.10
2022-12-01T03:18:24.539Z,4.60
2022-12-01T03:23:31.503Z,4.10
2022-12-01T03:28:39.249Z,4.40
2022-12-01T03:34:37.970Z,5.60
2022-12-01T03:39:44.072Z,5.70
2022-12-01T03:44:57.085Z,5.90
2022-12-01T03:50:00.931Z,6.20
2022-12-01T03:55:16.311Z,7.20
2022-12-01T04:00:20.461Z,7.30
2022-12-01T04:05:25.464Z,7.60
2022-12-01T04:10:28.705Z,8.00
2022-12-01T04:15:31.718Z,7.60
2022-12-01T04:20:34.722Z,8.50
2022-12-01T04:25:37.627Z,8.90
2022-12-01T04:30:40.633Z,9.30
2022-12-01T04:35:43.641Z,9.00
2022-12-01T04:40:46.849Z,9.80
2022-12-01T04:45:49.961Z,9.40
2022-12-01T04:50:52.963Z,10.30
2022-12-01T04:55:56.070Z,10.50
2022-12-01T05:01:04.091Z,10.40
2022-12-01T05:06:11.382Z,10.20
2022-12-01T05:11:14.927Z,9.80
2022-12-01T05:16:30.124Z,10.20
2022-12-01T05:21:33.121Z,11.40
2022-12-01T05:26:36.225Z,10.70
2022-12-01T05:31:39.985Z,12.10
2022-12-01T05:36:43.058Z,11.50
2022-12-01T05:41:45.960Z,11.50
2022-12-01T05:46:49.072Z,11.50
2022-12-01T05:51:52.281Z,12.00
2022-12-01T05:56:55.287Z,11.50
2022-12-01T06:01:58.488Z,12.70
2022-12-01T06:07:01.620Z,12.80
2022-12-01T06:12:04.824Z,12.30
2022-12-01T06:17:07.929Z,11.70
2022-12-01T06:22:11.241Z,12.30
2022-12-01T06:27:14.348Z,13.20
2022-12-01T06:32:17.866Z,13.00
2022-12-01T06:37:21.077Z,12.70
2022-12-01T06:42:24.085Z,12.40
2022-12-01T06:47:27.601Z,13.30
2022-12-01T06:52:30.506Z,12.90
2022-12-01T06:57:33.513Z,12.10
2022-12-01T07:02:36.676Z,13.20
2022-12-01T07:07:40.300Z,12.30
2022-12-01T07:12:43.351Z,15.80
2022-12-01T07:17:46.256Z,11.50
2022-12-01T07:22:49.465Z,11.80
2022-12-01T07:27:52.369Z,14.30
2022-12-01T07:32:55.380Z,14.10
2022-12-01T07:37:58.488Z,13.30
2022-12-01T07:43:01.490Z,14.00
2022-12-01T07:48:04.603Z,14.70
2022-12-01T07:53:07.502Z,16.10
2022-12-01T07:58:10.408Z,14.70
2022-12-01T08:03:13.658Z,17.90
2022-12-01T08:08:16.652Z,18.30
2022-12-01T08:13:20.925Z,16.10
2022-12-01T08:18:24.687Z,16.40
2022-12-01T08:23:27.799Z,16.30
2022-12-01T08:28:31.827Z,14.90
2022-12-01T08:33:35.038Z,16.80
2022-12-01T08:38:38.352Z,15.80
2022-12-01T08:44:00.415Z,13.60
2022-12-01T08:49:06.344Z,15.00
2022-12-01T08:54:11.222Z,17.20
2022-12-01T08:59:14.340Z,13.10
2022-12-01T09:04:22.367Z,16.60
2022-12-01T09:09:28.597Z,18.90
2022-12-01T09:14:31.647Z,17.10
2022-12-01T09:19:35.554Z,18.50
2022-12-01T09:24:38.791Z,18.40
2022-12-01T09:29:41.902Z,16.40
2022-12-01T09:34:45.111Z,18.70
2022-12-01T09:39:48.463Z,18.60
2022-12-01T09:44:54.611Z,18.00
2022-12-01T09:50:16.657Z,16.10
2022-12-01T09:55:23.328Z,17.00
2022-12-01T10:00:31.909Z,17.50
2022-12-01T10:11:40.203Z,17.70
2022-12-01T10:16:55.811Z,18.80
2022-12-01T10:22:13.917Z,15.80
2022-12-01T10:27:16.820Z,16.70
2022-12-01T10:32:26.433Z,16.90
2022-12-01T10:37:30.952Z,18.00
2022-12-01T10:42:41.327Z,19.20
2022-12-01T10:48:09.449Z,21.80
2022-12-01T10:53:32.415Z,19.40
2022-12-01T10:58:49.918Z,19.70
2022-12-01T11:04:42.691Z,23.90
2022-12-01T11:09:48.688Z,19.00
2022-12-01T11:14:54.645Z,16.70
2022-12-01T11:19:57.789Z,20.40
2022-12-01T11:25:05.675Z,18.50
2022-12-01T11:30:21.483Z,17.80
2022-12-01T11:35:32.168Z,16.20
2022-12-01T11:40:56.340Z,17.50
2022-12-01T11:46:07.692Z,16.90
2022-12-01T11:51:20.140Z,17.70
2022-12-01T11:56:28.801Z,16.20
2022-12-01T12:01:40.857Z,16.40
2022-12-01T12:07:01.476Z,16.30
2022-12-01T12:12:10.422Z,17.50
2022-12-01T12:17:28.242Z,15.70
2022-12-01T12:22:40.397Z,16.10
2022-12-01T12:28:03.275Z,15.50
2022-12-01T12:33:42.639Z,13.30
2022-12-01T12:39:01.301Z,16.00
2022-12-01T12:44:25.707Z,15.70
2022-12-01T12:49:44.392Z,14.00
2022-12-01T12:54:51.797Z,15.60
2022-12-01T13:00:03.608Z,16.30
2022-12-01T13:05:18.925Z,14.50
2022-12-01T13:10:43.410Z,15.00
2022-12-01T13:15:50.690Z,13.30
2022-12-01T13:20:55.979Z,15.10
2022-12-01T13:26:01.749Z,16.60
2022-12-01T13:31:11.345Z,16.70
2022-12-01T13:41:39.704Z,17.50
2022-12-01T13:46:42.998Z,18.30
2022-12-01T13:52:23.369Z,15.20
2022-12-01T13:57:29.428Z,15.20
2022-12-01T14:02:35.176Z,14.90
2022-12-01T14:07:39.054Z,15.40
2022-12-01T14:12:46.030Z,14.70
2022-12-01T14:18:00.695Z,16.00
2022-12-01T14:23:24.795Z,15.40
2022-12-01T14:28:56.045Z,14.90
2022-12-01T14:34:01.634Z,15.80
2022-12-01T14:39:13.265Z,17.90
2022-12-01T14:44:36.152Z,14.00
2022-12-01T14:49:57.653Z,18.50
2022-12-01T14:55:07.321Z,17.10
2022-12-01T15:00:16.615Z,18.60
2022-12-01T15:05:27.481Z,16.90
2022-12-01T15:10:35.458Z,13.40
2022-12-01T15:15:53.449Z,17.70
2022-12-01T15:21:02.053Z,19.90
2022-12-01T15:26:05.361Z,18.40
2022-12-01T15:31:12.954Z,18.80
2022-12-01T15:36:16.557Z,16.10
2022-12-01T15:41:29.936Z,19.10
2022-12-01T15:46:34.746Z,18.20
2022-12-01T15:51:37.939Z,24.20
2022-12-01T15:56:41.869Z,23.90
2022-12-01T16:01:45.658Z,25.70
2022-12-01T16:07:10.203Z,25.10
2022-12-01T16:12:22.219Z,24.30
2022-12-01T16:17:26.431Z,22.80
2022-12-01T16:22:29.563Z,23.90
2022-12-01T16:27:32.778Z,25.00
2022-12-01T16:32:43.995Z,25.90
2022-12-01T16:37:47.194Z,26.20
2022-12-01T16:42:50.601Z,27.00
2022-12-01T16:47:53.619Z,28.20
2022-12-01T16:52:56.723Z,20.70
2022-12-01T16:57:59.830Z,20.90
2022-12-01T17:03:04.579Z,19.40
2022-12-01T17:08:07.735Z,19.80
2022-12-01T17:13:11.860Z,21.10
2022-12-01T17:18:17.072Z,20.20
2022-12-01T17:23:20.176Z,21.50
2022-12-01T17:28:23.289Z,20.80
2022-12-01T17:33:26.295Z,19.20
2022-12-01T17:38:29.527Z,18.70
2022-12-01T17:43:34.766Z,18.70
2022-12-01T17:48:40.640Z,17.70
2022-12-01T17:53:43.644Z,19.70
2022-12-01T17:58:49.473Z,19.30
2022-12-01T18:03:53.038Z,22.20
2022-12-01T18:08:57.620Z,23.00
2022-12-01T18:14:01.530Z,19.90
2022-12-01T18:19:04.726Z,19.00
2022-12-01T18:24:12.025Z,18.30
2022-12-01T18:29:25.905Z,18.70
2022-12-01T18:34:32.034Z,19.60
2022-12-01T18:39:35.080Z,18.70
2022-12-01T18:44:39.106Z,14.50
2022-12-01T18:49:42.310Z,14.00
2022-12-01T18:54:45.419Z,17.70
2022-12-01T18:59:48.543Z,17.60
2022-12-01T19:04:51.841Z,18.10
2022-12-01T19:09:55.164Z,16.90
2022-12-01T19:14:58.463Z,18.90
2022-12-01T19:20:01.783Z,15.90
2022-12-01T19:25:05.742Z,15.90
2022-12-01T19:30:09.362Z,14.20
2022-12-01T19:35:12.651Z,14.10
2022-12-01T19:40:15.877Z,15.60
2022-12-01T19:45:19.073Z,15.90
2022-12-01T19:50:22.085Z,15.40
2022-12-01T19:55:25.394Z,16.10
2022-12-01T20:00:28.609Z,16.40
2022-12-01T20:05:32.819Z,15.80
2022-12-01T20:10:35.843Z,15.00
2022-12-01T20:15:39.071Z,11.70
2022-12-01T20:20:42.367Z,14.00
2022-12-01T20:25:45.269Z,12.90
2022-12-01T20:30:48.282Z,15.50
2022-12-01T20:35:51.801Z,16.60
2022-12-01T20:40:55.243Z,15.50
2022-12-01T20:45:58.280Z,14.70
2022-12-01T20:51:03.894Z,15.80
2022-12-01T20:56:10.038Z,13.70
2022-12-01T21:01:16.475Z,15.50
2022-12-01T21:06:20.588Z,16.20
2022-12-01T21:11:47.865Z,15.80
2022-12-01T21:16:55.331Z,14.50
2022-12-01T21:21:59.040Z,15.90
2022-12-01T21:27:13.165Z,15.80
2022-12-01T21:32:19.957Z,15.70
2022-12-01T21:37:25.112Z,16.30
2022-12-01T21:42:31.715Z,14.90
2022-12-01T21:47:35.076Z,13.80
2022-12-01T21:52:42.019Z,13.30
2022-12-01T21:57:47.298Z,14.80
2022-12-01T22:02:52.529Z,12.90
2022-12-01T22:08:10.022Z,13.20
2022-12-01T22:13:13.199Z,13.20
2022-12-01T22:18:25.504Z,16.40
2022-12-01T22:23:34.062Z,15.50
2022-12-01T22:28:37.169Z,11.60
2022-12-01T22:33:40.174Z,12.60
2022-12-01T22:38:43.481Z,13.00
2022-12-01T22:43:49.565Z,13.40
2022-12-01T22:49:01.171Z,13.50
2022-12-01T22:54:10.323Z,12.80
2022-12-01T22:59:15.324Z,11.20
2022-12-01T23:04:29.745Z,13.10
2022-12-01T23:09:40.546Z,12.40
2022-12-01T23:14:46.612Z,13.50
2022-12-01T23:19:52.441Z,12.50
2022-12-01T23:24:55.391Z,12.40
2022-12-01T23:29:59.225Z,12.00
2022-12-01T23:35:02.669Z,13.10
2022-12-01T23:40:20.691Z,12.80
2022-12-01T23:45:26.001Z,13.90
2022-12-01T23:50:30.755Z,11.30
2022-12-01T23:55:34.522Z,14.50
